Time;durP1;ratioP1;P1;durP2;ratioP2;P2;SDS_P1;SDS_P2;PMS_P1;PMS_P2;Temp;Humidity;BMP_temperature;BMP_pressure;BME280_temperature;BME280_humidity;BME280_pressure;Samples;Min_cycle;Max_cycle;Signal;HPM_P1;HPM_P2
2023/07/01 00:00:49;;;;;;;0.37;0.37;;;;;;;21.57;56.50;99161.53;4472550;31;33450;-88
2023/07/01 00:03:18;;;;;;;0.65;0.65;;;;;;;21.65;56.05;99157.09;4465990;31;31077;-88
2023/07/01 00:05:46;;;;;;;1.58;0.47;;;;;;;21.52;56.54;99156.63;4461296;31;32717;-88
2023/07/01 00:08:13;;;;;;;0.70;0.70;;;;;;;21.46;56.73;99159.91;4476822;31;34682;-88
2023/07/01 00:10:41;;;;;;;0.40;0.40;;;;;;;21.35;56.95;99157.44;4465663;31;32290;-88
2023/07/01 00:13:09;;;;;;;0.73;0.73;;;;;;;21.22;57.25;99147.87;4462868;31;33537;-88
2023/07/01 00:15:37;;;;;;;1.37;0.55;;;;;;;21.18;57.40;99153.69;4475427;31;32852;-88
2023/07/01 00:18:05;;;;;;;0.60;0.60;;;;;;;21.28;56.97;99153.63;4489545;31;33410;-88
2023/07/01 00:20:32;;;;;;;1.30;0.93;;;;;;;21.48;56.28;99152.53;4489623;31;32960;-88
2023/07/01 00:23:00;;;;;;;1.75;0.85;;;;;;;21.29;57.12;99150.78;4476668;31;33832;-88
2023/07/01 00:25:28;;;;;;;0.88;0.88;;;;;;;21.26;57.08;99152.94;4460912;31;32510;-88
2023/07/01 00:27:56;;;;;;;2.45;0.85;;;;;;;21.19;57.35;99150.84;4474284;31;32538;-88
2023/07/01 00:30:24;;;;;;;1.08;0.37;;;;;;;21.14;57.28;99155.84;4473526;31;33926;-88
2023/07/01 00:32:51;;;;;;;0.43;0.43;;;;;;;21.14;57.10;99150.47;4461529;31;33891;-88
2023/07/01 00:35:19;;;;;;;2.60;0.82;;;;;;;21.15;57.35;99152.16;4476733;31;33003;-88
2023/07/01 00:37:46;;;;;;;0.45;0.45;;;;;;;21.09;57.58;99151.91;4462020;31;32722;-88
2023/07/01 00:40:15;;;;;;;1.37;1.25;;;;;;;21.11;57.60;99144.53;4460515;31;32584;-88
2023/07/01 00:42:44;;;;;;;0.65;0.65;;;;;;;21.07;57.69;99143.16;4461400;31;34079;-88
2023/07/01 00:45:12;;;;;;;0.73;0.73;;;;;;;21.04;57.86;99149.69;4488680;31;32987;-88
2023/07/01 00:47:40;;;;;;;1.00;0.73;;;;;;;21.10;57.96;99141.03;4473743;31;33125;-88
2023/07/01 00:50:12;;;;;;;1.27;1.02;;;;;;;20.98;58.18;99139.53;4464177;31;32496;-88
2023/07/01 00:52:41;;;;;;;0.82;0.75;;;;;;;21.03;57.88;99142.63;4462523;31;33124;-88
2023/07/01 00:55:10;;;;;;;0.22;0.22;;;;;;;20.89;58.47;99141.28;4475481;31;32771;-88
2023/07/01 00:57:37;;;;;;;0.37;0.37;;;;;;;20.95;58.11;99134.47;4453310;31;32550;-88
2023/07/01 01:00:10;;;;;;;0.68;0.65;;;;;;;20.84;58.39;99137.31;4448791;31;34236;-88
2023/07/01 01:02:54;;;;;;;1.17;1.08;;;;;;;20.90;57.93;99137.59;4461306;31;33865;-87
2023/07/01 01:05:34;;;;;;;0.50;0.50;;;;;;;20.82;58.61;99131.28;4465603;31;33402;-87
2023/07/01 01:08:09;;;;;;;1.30;1.00;;;;;;;20.83;58.42;99132.97;4471893;31;33647;-87
2023/07/01 01:10:39;;;;;;;1.12;0.50;;;;;;;20.85;58.24;99120.25;4464845;31;32673;-87
2023/07/01 01:13:07;;;;;;;3.20;2.05;;;;;;;20.77;58.51;99120.16;4461133;31;32473;-87
2023/07/01 01:15:37;;;;;;;1.10;0.65;;;;;;;20.78;58.34;99113.78;4478276;31;32798;-87
2023/07/01 01:18:05;;;;;;;0.47;0.45;;;;;;;20.61;58.81;99115.44;4472047;31;33724;-88
2023/07/01 01:20:34;;;;;;;0.73;0.73;;;;;;;20.62;58.93;99101.03;4462016;31;32399;-87
2023/07/01 01:23:08;;;;;;;0.75;0.75;;;;;;;20.54;59.31;99104.44;4463327;31;32457;-85
2023/07/01 01:25:38;;;;;;;0.37;0.37;;;;;;;20.49;59.45;99106.72;4484466;31;33145;-86
2023/07/01 01:28:05;;;;;;;1.85;1.05;;;;;;;20.60;58.81;99106.50;4468785;31;33749;-85
2023/07/01 01:30:33;;;;;;;0.95;0.95;;;;;;;20.54;59.00;99108.94;4456354;31;34195;-86
2023/07/01 01:33:02;;;;;;;0.62;0.62;;;;;;;20.61;58.61;99110.06;4467325;31;33184;-86
2023/07/01 01:35:29;;;;;;;1.95;0.55;;;;;;;20.64;58.47;99107.91;4471237;31;33178;-86
2023/07/01 01:38:11;;;;;;;0.70;0.70;;;;;;;20.63;58.26;99106.22;4475617;31;34292;-88
2023/07/01 01:40:44;;;;;;;0.65;0.62;;;;;;;20.50;58.86;99112.91;4474147;31;33477;-88
2023/07/01 01:43:22;;;;;;;3.37;1.58;;;;;;;20.45;59.27;99113.31;4473103;31;32455;-88
2023/07/01 01:45:50;;;;;;;0.95;0.88;;;;;;;20.48;59.01;99113.06;4474070;31;32789;-88
2023/07/01 01:48:17;;;;;;;0.35;0.35;;;;;;;20.39;59.36;99105.88;4463304;31;34475;-88
2023/07/01 01:50:48;;;;;;;0.43;0.43;;;;;;;20.43;59.44;99112.62;4474525;31;33934;-88
2023/07/01 01:53:17;;;;;;;1.55;0.95;;;;;;;20.50;59.10;99110.22;4438537;31;32903;-88
2023/07/01 01:55:45;;;;;;;1.20;0.82;;;;;;;20.42;59.26;99102.91;4449260;31;33331;-88
2023/07/01 01:58:12;;;;;;;0.62;0.62;;;;;;;20.45;59.11;99106.12;4473604;31;33793;-88
2023/07/01 02:00:40;;;;;;;0.20;0.20;;;;;;;20.44;59.03;99099.06;4455390;32;33997;-87
2023/07/01 02:03:09;;;;;;;0.28;0.28;;;;;;;20.46;59.09;99102.47;4468909;31;33950;-88
2023/07/01 02:05:36;;;;;;;2.50;1.42;;;;;;;20.28;59.83;99108.75;4475386;31;35242;-88
2023/07/01 02:08:04;;;;;;;0.47;0.47;;;;;;;20.44;59.26;99107.13;4476236;31;33943;-88
2023/07/01 02:10:32;;;;;;;3.67;0.75;;;;;;;20.29;59.54;99105.06;4463995;31;32208;-88
2023/07/01 02:13:01;;;;;;;0.55;0.55;;;;;;;20.32;59.37;99100.25;4484884;31;33628;-88
2023/07/01 02:15:29;;;;;;;0.75;0.62;;;;;;;20.40;59.26;99102.19;4487877;31;34061;-88
2023/07/01 02:17:58;;;;;;;2.42;0.47;;;;;;;20.30;59.58;99101.37;4459166;31;34005;-87
2023/07/01 02:20:25;;;;;;;1.73;1.55;;;;;;;20.15;59.82;99104.53;4458405;31;34030;-86
2023/07/01 02:22:53;;;;;;;0.10;0.10;;;;;;;20.08;60.09;99098.06;4464571;31;33032;-86
2023/07/01 02:25:21;;;;;;;0.30;0.30;;;;;;;20.02;60.12;99098.62;4448845;31;32313;-86
2023/07/01 02:27:48;;;;;;;1.00;0.85;;;;;;;20.16;59.53;99103.53;4463740;31;33436;-86
2023/07/01 02:30:16;;;;;;;0.47;0.43;;;;;;;20.16;59.23;99106.22;4489219;31;33365;-87
2023/07/01 02:32:44;;;;;;;0.88;0.57;;;;;;;20.08;59.88;99111.47;4484636;31;34013;-86
2023/07/01 02:35:11;;;;;;;1.35;1.08;;;;;;;20.04;60.18;99112.75;4443010;31;31926;-87
2023/07/01 02:37:39;;;;;;;0.62;0.62;;;;;;;20.02;60.13;99109.34;4456462;31;32360;-87
2023/07/01 02:40:07;;;;;;;0.70;0.43;;;;;;;19.91;60.46;99101.47;4472775;31;34492;-87
2023/07/01 02:42:35;;;;;;;1.85;1.62;;;;;;;20.00;60.13;99100.63;4455248;31;32465;-86
2023/07/01 02:45:04;;;;;;;1.10;0.45;;;;;;;20.00;60.02;99095.25;4470702;31;32904;-87
2023/07/01 02:47:33;;;;;;;0.70;0.70;;;;;;;20.06;60.08;99093.81;4474267;31;32350;-87
2023/07/01 02:50:01;;;;;;;1.00;0.90;;;;;;;19.88;60.59;99099.06;4449553;31;32654;-87
2023/07/01 02:52:29;;;;;;;1.05;0.70;;;;;;;19.87;60.62;99095.56;4466116;31;34642;-87
2023/07/01 02:54:57;;;;;;;5.20;0.90;;;;;;;20.09;59.72;99097.06;4457764;31;33105;-87
2023/07/01 02:57:25;;;;;;;0.30;0.30;;;;;;;19.99;59.65;99104.28;4453844;31;33901;-86
2023/07/01 02:59:55;;;;;;;0.43;0.43;;;;;;;20.00;59.81;99103.28;4479392;31;34772;-86
2023/07/01 03:02:23;;;;;;;0.62;0.62;;;;;;;20.32;59.10;99104.75;4462837;31;32554;-86
2023/07/01 03:04:50;;;;;;;0.62;0.62;;;;;;;20.02;60.01;99109.34;4483342;31;34032;-87
2023/07/01 03:07:18;;;;;;;0.35;0.35;;;;;;;19.89;60.70;99111.47;4460208;31;34502;-87
2023/07/01 03:09:45;;;;;;;0.80;0.50;;;;;;;19.80;60.84;99109.69;4454138;31;34335;-87
2023/07/01 03:12:13;;;;;;;2.05;1.30;;;;;;;19.81;60.85;99100.66;4466500;31;34384;-86
2023/07/01 03:14:40;;;;;;;0.77;0.77;;;;;;;19.74;61.36;99108.38;4472228;31;32701;-86
2023/07/01 03:17:09;;;;;;;7.03;1.60;;;;;;;19.64;61.88;99103.03;4490858;31;32492;-86
2023/07/01 03:19:37;;;;;;;0.43;0.43;;;;;;;19.83;61.11;99104.00;4456932;32;33659;-86
2023/07/01 03:22:05;;;;;;;7.03;2.10;;;;;;;19.81;61.01;99106.84;4465073;31;34351;-87
2023/07/01 03:24:35;;;;;;;3.92;0.73;;;;;;;19.84;61.10;99100.34;4462790;32;31825;-87
2023/07/01 03:27:03;;;;;;;0.50;0.50;;;;;;;19.90;60.95;99094.44;4461676;31;32588;-87
2023/07/01 03:29:31;;;;;;;0.25;0.20;;;;;;;19.90;61.22;99094.44;4477969;31;34050;-86
2023/07/01 03:31:59;;;;;;;0.60;0.60;;;;;;;19.95;61.23;99094.84;4461087;32;33598;-87
2023/07/01 03:34:26;;;;;;;0.50;0.50;;;;;;;20.10;60.78;99096.06;4451691;31;32260;-86
2023/07/01 03:36:54;;;;;;;0.75;0.75;;;;;;;20.26;60.28;99095.47;4461114;31;32704;-86
2023/07/01 03:39:22;;;;;;;0.35;0.35;;;;;;;20.55;59.36;99100.75;4459274;31;31593;-86
2023/07/01 03:41:49;;;;;;;0.68;0.68;;;;;;;20.24;60.59;99099.28;4471088;31;34492;-86
2023/07/01 03:44:17;;;;;;;12.20;1.50;;;;;;;20.35;60.71;99097.25;4466578;32;33042;-87
2023/07/01 03:46:44;;;;;;;1.30;1.20;;;;;;;20.52;60.25;99094.84;4462509;32;33310;-87
2023/07/01 03:49:12;;;;;;;1.48;0.75;;;;;;;20.60;59.30;99093.09;4466604;32;34074;-87
2023/07/01 03:51:41;;;;;;;0.40;0.40;;;;;;;20.71;58.52;99094.75;4453602;32;33700;-87
2023/07/01 03:54:09;;;;;;;1.83;0.98;;;;;;;20.61;58.99;99100.19;4467861;32;33807;-87
2023/07/01 03:56:38;;;;;;;0.40;0.40;;;;;;;20.74;58.96;99094.44;4457434;31;33303;-86
2023/07/01 03:59:06;;;;;;;1.05;0.95;;;;;;;20.80;58.70;99083.16;4484939;31;34789;-87
2023/07/01 04:01:36;;;;;;;0.25;0.25;;;;;;;20.82;59.19;99089.19;4466909;31;33218;-87
2023/07/01 04:04:04;;;;;;;2.35;1.05;;;;;;;20.73;59.65;99087.41;4469813;31;34314;-87
2023/07/01 04:06:31;;;;;;;0.73;0.73;;;;;;;20.94;59.20;99089.84;4464834;31;33241;-87
2023/07/01 04:08:59;;;;;;;2.92;1.60;;;;;;;21.09;58.91;99087.50;4473000;31;33893;-87
2023/07/01 04:11:27;;;;;;;0.80;0.80;;;;;;;21.32;58.30;99087.94;4460446;31;33302;-87
2023/07/01 04:13:55;;;;;;;1.12;1.02;;;;;;;21.33;58.36;99077.03;4461456;31;32810;-87
2023/07/01 04:16:22;;;;;;;1.42;0.95;;;;;;;21.65;57.68;99073.81;4475582;31;31888;-87
2023/07/01 04:18:50;;;;;;;4.18;1.23;;;;;;;21.69;57.42;99079.69;4461240;31;32082;-87
2023/07/01 04:21:17;;;;;;;0.82;0.65;;;;;;;21.86;57.01;99083.34;4448195;31;32355;-86
2023/07/01 04:23:45;;;;;;;0.70;0.70;;;;;;;22.14;55.76;99082.25;4491031;31;33075;-87
2023/07/01 04:26:13;;;;;;;2.00;1.40;;;;;;;22.26;56.11;99081.97;4483350;31;33926;-87
2023/07/01 04:28:40;;;;;;;2.40;1.62;;;;;;;22.38;55.72;99078.00;4467908;31;33891;-87
2023/07/01 04:31:08;;;;;;;0.43;0.43;;;;;;;22.46;55.37;99078.06;4474576;31;33935;-87
2023/07/01 04:33:35;;;;;;;1.62;1.52;;;;;;;22.42;55.76;99072.16;4449357;31;33102;-87
2023/07/01 04:36:03;;;;;;;0.40;0.40;;;;;;;22.57;55.10;99068.88;4462358;31;33264;-87
2023/07/01 04:38:30;;;;;;;1.33;0.88;;;;;;;22.40;55.81;99079.53;4463142;31;34788;-87
2023/07/01 04:40:58;;;;;;;0.47;0.47;;;;;;;22.47;55.20;99074.38;4473930;31;34155;-87
2023/07/01 04:43:26;;;;;;;0.65;0.65;;;;;;;22.23;56.17;99084.00;4451805;31;31960;-88
2023/07/01 04:45:53;;;;;;;1.00;0.70;;;;;;;22.30;56.70;99083.34;4458842;32;33809;-87
2023/07/01 04:48:21;;;;;;;0.68;0.62;;;;;;;22.75;55.49;99073.16;4452670;31;34766;-88
2023/07/01 04:50:49;;;;;;;0.62;0.62;;;;;;;22.77;55.64;99066.75;4438203;32;33256;-87
2023/07/01 04:53:16;;;;;;;1.00;0.82;;;;;;;22.73;56.37;99069.75;4475068;31;36247;-88
2023/07/01 04:55:44;;;;;;;1.65;1.35;;;;;;;23.03;54.90;99070.25;4456211;31;33805;-88
2023/07/01 04:58:12;;;;;;;1.95;1.37;;;;;;;22.90;55.52;99070.69;4452559;31;32540;-88
2023/07/01 05:00:39;;;;;;;0.98;0.88;;;;;;;22.95;55.87;99067.53;4455240;31;33806;-86
2023/07/01 05:03:07;;;;;;;0.50;0.50;;;;;;;23.08;55.27;99070.59;4457001;31;32875;-86
2023/07/01 05:05:35;;;;;;;3.03;0.95;;;;;;;23.30;54.48;99066.41;4467176;31;33954;-86
2023/07/01 05:08:02;;;;;;;0.68;0.68;;;;;;;23.47;54.15;99060.03;4462130;32;33708;-86
2023/07/01 05:10:31;;;;;;;0.73;0.73;;;;;;;23.24;55.45;99070.63;4442456;31;34734;-86
2023/07/01 05:12:58;;;;;;;1.87;1.77;;;;;;;23.40;55.15;99053.63;4452258;31;33978;-86
2023/07/01 05:15:26;;;;;;;0.75;0.75;;;;;;;23.63;54.67;99061.88;4453205;31;34444;-86
2023/07/01 05:17:54;;;;;;;0.70;0.70;;;;;;;23.77;54.27;99052.31;4466509;31;34820;-87
2023/07/01 05:20:21;;;;;;;1.00;1.00;;;;;;;23.99;53.39;99053.47;4446742;31;34510;-86
2023/07/01 05:22:49;;;;;;;1.17;1.08;;;;;;;24.18;52.84;99058.50;4452489;31;33071;-87
2023/07/01 05:25:16;;;;;;;0.90;0.70;;;;;;;24.08;52.50;99059.72;4466306;31;34539;-86
2023/07/01 05:27:44;;;;;;;0.77;0.75;;;;;;;24.23;51.83;99064.22;4439311;32;178235;-87
2023/07/01 05:30:12;;;;;;;1.33;1.20;;;;;;;24.15;52.33;99069.63;4451879;31;34173;-87
2023/07/01 05:32:39;;;;;;;1.50;1.00;;;;;;;24.51;51.53;99066.53;4460039;31;32950;-86
2023/07/01 05:35:07;;;;;;;2.85;1.75;;;;;;;24.53;50.68;99073.44;4453484;32;32753;-86
2023/07/01 05:37:35;;;;;;;0.70;0.70;;;;;;;24.93;49.59;99065.34;4465205;31;34010;-87
2023/07/01 05:40:03;;;;;;;19.75;2.40;;;;;;;24.93;50.11;99070.75;4463700;31;33915;-87
2023/07/01 05:42:31;;;;;;;1.33;1.00;;;;;;;24.92;50.09;99075.28;4464360;31;33680;-87
2023/07/01 05:44:58;;;;;;;1.60;0.85;;;;;;;24.75;48.96;99077.22;4465488;31;33960;-87
2023/07/01 05:47:26;;;;;;;1.25;1.15;;;;;;;24.67;49.39;99071.84;4464842;31;34621;-87
2023/07/01 05:49:54;;;;;;;1.25;1.15;;;;;;;25.13;48.77;99073.88;4452780;31;33158;-86
2023/07/01 05:52:21;;;;;;;1.05;0.85;;;;;;;25.18;48.33;99075.00;4463401;31;32781;-87
2023/07/01 05:54:49;;;;;;;11.60;1.30;;;;;;;25.13;50.29;99077.41;4466308;31;33495;-87
2023/07/01 05:57:18;;;;;;;1.27;0.82;;;;;;;25.11;50.00;99067.78;4465474;31;34756;-87
2023/07/01 05:59:45;;;;;;;0.77;0.77;;;;;;;24.94;50.37;99072.44;4454930;31;31881;-87
2023/07/01 06:02:13;;;;;;;0.88;0.85;;;;;;;25.15;49.42;99063.72;4463971;31;32321;-88
2023/07/01 06:04:41;;;;;;;0.60;0.60;;;;;;;25.45;48.96;99060.16;4467462;31;34030;-87
2023/07/01 06:07:09;;;;;;;1.35;0.50;;;;;;;25.47;48.93;99062.66;4446207;31;33252;-87
2023/07/01 06:09:36;;;;;;;0.82;0.82;;;;;;;25.79;47.90;99067.84;4476038;31;33858;-87
2023/07/01 06:12:05;;;;;;;1.00;0.93;;;;;;;26.11;46.25;99065.88;4468727;31;32689;-87
2023/07/01 06:14:32;;;;;;;1.77;1.40;;;;;;;25.81;47.25;99069.50;4479793;31;33823;-87
2023/07/01 06:17:00;;;;;;;1.00;0.93;;;;;;;25.48;47.32;99069.75;4463970;31;32494;-87
2023/07/01 06:19:28;;;;;;;1.52;1.42;;;;;;;25.67;47.01;99071.13;4453211;31;33055;-87
2023/07/01 06:21:55;;;;;;;0.55;0.55;;;;;;;26.02;46.49;99066.97;4451996;31;31655;-87
2023/07/01 06:24:23;;;;;;;3.10;1.33;;;;;;;26.29;45.98;99069.03;4463092;31;34328;-87
2023/07/01 06:26:51;;;;;;;3.03;1.65;;;;;;;25.90;47.06;99073.84;4463508;31;34869;-87
2023/07/01 06:29:18;;;;;;;0.82;0.82;;;;;;;25.94;47.22;99073.28;4454838;31;34117;-87
2023/07/01 06:31:46;;;;;;;2.58;0.88;;;;;;;25.99;47.12;99078.97;4445170;31;31883;-87
2023/07/01 06:34:16;;;;;;;2.95;1.65;;;;;;;26.33;46.67;99079.50;4482053;31;34645;-86
2023/07/01 06:36:44;;;;;;;0.65;0.65;;;;;;;26.85;45.72;99082.12;4481814;31;33337;-87
2023/07/01 06:39:12;;;;;;;2.05;1.85;;;;;;;26.93;44.85;99078.47;4453194;31;32386;-87
2023/07/01 06:41:40;;;;;;;1.25;0.77;;;;;;;27.03;45.78;99071.72;4466223;31;31473;-87
2023/07/01 06:44:07;;;;;;;2.62;0.85;;;;;;;26.69;46.31;99080.47;4469103;31;33986;-87
2023/07/01 06:46:35;;;;;;;2.28;1.25;;;;;;;26.77;46.36;99077.63;4482922;31;34738;-87
2023/07/01 06:49:03;;;;;;;0.90;0.90;;;;;;;26.97;45.13;99066.22;4454136;31;34033;-87
2023/07/01 06:51:30;;;;;;;1.05;0.98;;;;;;;27.26;46.50;99071.59;4465014;31;31394;-87
2023/07/01 06:53:58;;;;;;;1.50;0.95;;;;;;;26.97;44.81;99064.34;4467089;32;32317;-87
2023/07/01 06:56:26;;;;;;;0.28;0.28;;;;;;;27.16;43.94;99062.09;4450414;31;32495;-85
2023/07/01 06:58:53;;;;;;;1.23;1.12;;;;;;;27.58;43.19;99061.25;4448744;31;34041;-86
2023/07/01 07:01:21;;;;;;;1.12;1.08;;;;;;;27.56;42.78;99063.34;4458360;31;34597;-86
2023/07/01 07:03:49;;;;;;;2.17;1.20;;;;;;;28.01;39.46;99053.09;4444400;31;33135;-87
2023/07/01 07:06:16;;;;;;;2.53;1.37;;;;;;;28.18;39.81;99046.34;4451075;31;32297;-87
2023/07/01 07:08:44;;;;;;;3.58;1.05;;;;;;;28.20;40.51;99044.28;4450701;31;32367;-86
2023/07/01 07:11:12;;;;;;;1.48;0.90;;;;;;;27.94;41.53;99049.50;4440392;31;32590;-86
2023/07/01 07:13:40;;;;;;;1.17;1.12;;;;;;;27.78;42.21;99048.75;4459559;32;33967;-86
2023/07/01 07:16:08;;;;;;;1.15;1.15;;;;;;;28.46;39.70;99054.47;4437008;31;32891;-87
2023/07/01 07:18:39;;;;;;;0.57;0.57;;;;;;;28.47;39.33;99036.31;4439804;31;32657;-87
2023/07/01 07:21:29;;;;;;;2.15;1.73;;;;;;;28.08;40.78;99043.16;4435267;31;32192;-87
2023/07/01 07:24:02;;;;;;;0.43;0.43;;;;;;;28.28;41.33;99032.41;4433814;31;31668;-87
2023/07/01 07:26:33;;;;;;;2.22;2.03;;;;;;;28.49;39.48;99043.22;4433548;31;33457;-88
2023/07/01 07:29:02;;;;;;;1.42;1.33;;;;;;;28.62;39.92;99036.16;4453240;31;32603;-87
2023/07/01 07:31:30;;;;;;;2.03;1.10;;;;;;;28.77;38.68;99021.44;4454343;31;32033;-87
2023/07/01 07:33:58;;;;;;;1.70;1.15;;;;;;;28.88;39.85;99022.72;4454380;31;33372;-87
2023/07/01 07:36:26;;;;;;;0.98;0.80;;;;;;;28.62;39.88;99017.16;4462939;31;34451;-88
2023/07/01 07:38:54;;;;;;;1.65;0.98;;;;;;;28.84;40.41;99022.28;4442184;31;33626;-87
2023/07/01 07:41:22;;;;;;;1.20;1.20;;;;;;;28.86;39.09;99021.22;4466635;31;32830;-87
2023/07/01 07:43:50;;;;;;;0.90;0.85;;;;;;;28.81;40.09;99022.66;4437755;31;30667;-87
2023/07/01 07:46:18;;;;;;;1.27;1.17;;;;;;;29.23;39.52;99019.91;4442387;31;33341;-88
2023/07/01 07:48:46;;;;;;;1.98;1.30;;;;;;;29.33;38.33;99004.84;4454164;31;33087;-86
2023/07/01 07:51:13;;;;;;;2.75;0.88;;;;;;;29.18;38.67;99012.34;4442028;31;32255;-87
2023/07/01 07:53:41;;;;;;;2.80;1.10;;;;;;;29.33;38.44;99014.88;4439686;31;33067;-87
2023/07/01 07:56:09;;;;;;;1.40;1.12;;;;;;;29.36;39.33;99008.22;4452102;31;32515;-87
2023/07/01 07:58:37;;;;;;;0.80;0.80;;;;;;;29.10;39.19;99004.38;4454500;31;32646;-87
2023/07/01 08:01:05;;;;;;;1.17;1.12;;;;;;;29.34;39.83;99009.25;4458082;31;32804;-88
2023/07/01 08:03:33;;;;;;;0.88;0.88;;;;;;;29.33;39.41;99004.84;4450916;31;32923;-88
2023/07/01 08:06:01;;;;;;;1.60;1.37;;;;;;;29.52;39.30;99002.34;4451182;31;33254;-87
2023/07/01 08:08:28;;;;;;;1.95;1.58;;;;;;;29.63;39.17;98998.22;4441208;31;32930;-87
2023/07/01 08:10:58;;;;;;;1.20;1.08;;;;;;;30.08;37.79;98991.03;4452746;31;32923;-87
2023/07/01 08:13:26;;;;;;;2.17;0.85;;;;;;;30.21;38.51;98992.94;4453386;31;34338;-88
2023/07/01 08:15:54;;;;;;;0.88;0.88;;;;;;;29.85;37.45;98986.87;4466321;32;33883;-87
2023/07/01 08:18:22;;;;;;;1.80;1.02;;;;;;;30.04;37.02;98978.91;4454527;31;32966;-88
2023/07/01 08:20:50;;;;;;;0.93;0.93;;;;;;;30.00;37.77;98977.66;4443187;31;32417;-88
2023/07/01 08:23:18;;;;;;;1.02;1.00;;;;;;;30.33;36.41;98985.78;4441595;31;33456;-88
2023/07/01 08:25:46;;;;;;;5.78;1.12;;;;;;;30.25;36.97;98981.41;4468033;31;33915;-88
2023/07/01 08:28:14;;;;;;;0.88;0.88;;;;;;;30.21;36.46;98987.50;4440225;31;33734;-88
2023/07/01 08:30:41;;;;;;;0.75;0.75;;;;;;;30.42;35.07;98980.94;4466172;31;34175;-87
2023/07/01 08:33:09;;;;;;;1.85;1.27;;;;;;;30.63;35.46;98977.94;4466234;31;33517;-87
2023/07/01 08:35:37;;;;;;;1.17;0.82;;;;;;;30.60;34.45;98983.78;4446346;31;32353;-87
2023/07/01 08:38:04;;;;;;;0.70;0.70;;;;;;;31.03;34.19;98972.28;4438695;32;32856;-87
2023/07/01 08:40:32;;;;;;;1.92;1.40;;;;;;;31.15;34.55;98975.16;4461994;31;32709;-87
2023/07/01 08:43:07;;;;;;;0.77;0.77;;;;;;;30.98;34.63;98972.09;4439345;31;32227;-87
2023/07/01 08:45:35;;;;;;;1.73;1.20;;;;;;;31.36;35.66;98966.63;4445412;31;33377;-87
2023/07/01 08:48:06;;;;;;;1.05;1.00;;;;;;;31.69;33.10;98968.25;4434575;31;32892;-87
2023/07/01 08:50:40;;;;;;;;;;;;;;;31.47;33.12;98973.25;4449668;31;33096;-86
2023/07/01 08:53:08;;;;;;;1.12;1.12;;;;;;;31.34;33.09;98972.31;4437464;31;32743;-86
2023/07/01 08:55:37;;;;;;;1.33;1.23;;;;;;;31.64;32.45;98968.91;4460567;31;31842;-86
2023/07/01 08:58:05;;;;;;;1.05;1.00;;;;;;;31.74;32.19;98966.50;4449442;31;32925;-87
2023/07/01 09:00:33;;;;;;;1.23;1.12;;;;;;;31.66;32.31;98966.78;4459314;32;33397;-86
2023/07/01 09:03:01;;;;;;;0.68;0.68;;;;;;;31.67;33.54;98973.06;4450067;31;33700;-86
2023/07/01 09:05:29;;;;;;;1.20;1.10;;;;;;;31.42;33.54;98964.91;4464248;31;33469;-86
2023/07/01 09:07:57;;;;;;;1.10;1.00;;;;;;;31.53;33.72;98961.47;4459148;31;32229;-86
2023/07/01 09:10:25;;;;;;;7.97;1.17;;;;;;;31.79;33.75;98963.94;4437383;31;32651;-86
2023/07/01 09:12:52;;;;;;;0.98;0.98;;;;;;;31.58;34.08;98958.91;4458531;31;32901;-86
2023/07/01 09:15:20;;;;;;;1.55;0.75;;;;;;;31.60;33.16;98964.97;4447605;31;31775;-86
2023/07/01 09:17:48;;;;;;;1.12;1.02;;;;;;;31.71;33.20;98964.22;4474285;31;33767;-89
2023/07/01 09:20:15;;;;;;;0.75;0.70;;;;;;;31.55;33.04;98968.34;4445274;31;33547;-88
2023/07/01 09:22:43;;;;;;;1.65;1.10;;;;;;;31.60;33.22;98962.22;4444340;31;33144;-87
2023/07/01 09:25:27;;;;;;;1.00;0.88;;;;;;;31.59;33.77;98966.84;4449413;31;32052;-88
2023/07/01 09:27:55;;;;;;;1.05;1.05;;;;;;;31.86;32.64;98959.28;4451634;31;33501;-88
2023/07/01 09:30:28;;;;;;;1.55;1.10;;;;;;;32.03;33.84;98961.44;4461213;31;35011;-88
2023/07/01 09:33:12;;;;;;;0.98;0.77;;;;;;;31.80;32.68;98957.41;4464921;31;33448;-88
2023/07/01 09:35:44;;;;;;;0.80;0.80;;;;;;;31.98;33.70;98958.53;4453895;31;32819;-89
2023/07/01 09:38:13;;;;;;;1.17;1.10;;;;;;;31.33;32.73;98957.00;4461800;32;33604;-89
2023/07/01 09:40:41;;;;;;;1.10;1.10;;;;;;;32.08;33.78;98956.13;4435943;32;32943;-88
2023/07/01 09:43:09;;;;;;;1.42;0.73;;;;;;;31.95;33.64;98959.81;4451886;32;32941;-88
2023/07/01 09:45:36;;;;;;;0.62;0.62;;;;;;;31.50;32.57;98957.28;4452270;32;33608;-88
2023/07/01 09:48:13;;;;;;;1.42;1.33;;;;;;;31.58;32.68;98953.44;4465973;32;33902;-88
2023/07/01 09:50:40;;;;;;;0.62;0.62;;;;;;;31.44;32.92;98950.00;4453009;31;32251;-88
2023/07/01 09:53:22;;;;;;;7.85;1.20;;;;;;;31.60;33.07;98954.88;4455430;32;33039;-88
2023/07/01 09:55:50;;;;;;;1.75;0.95;;;;;;;31.65;32.45;98958.84;4469437;31;33923;-88
2023/07/01 09:58:18;;;;;;;1.27;1.17;;;;;;;31.72;33.07;98949.53;4465915;32;32107;-88
2023/07/01 10:00:46;;;;;;;1.20;1.08;;;;;;;31.86;33.82;98951.09;4480748;31;33441;-88
2023/07/01 10:03:14;;;;;;;0.80;0.80;;;;;;;31.94;32.84;98949.97;4451947;31;32598;-88
2023/07/01 10:05:44;;;;;;;1.55;1.45;;;;;;;32.15;32.90;98948.69;4468257;31;33957;-88
2023/07/01 10:08:12;;;;;;;0.88;0.88;;;;;;;32.17;32.63;98943.00;4450858;31;33611;-88
2023/07/01 10:10:39;;;;;;;0.98;0.77;;;;;;;32.33;32.72;98945.09;4467162;31;33730;-88
2023/07/01 10:13:08;;;;;;;5.30;1.20;;;;;;;32.32;33.07;98937.97;4464351;32;33625;-88
2023/07/01 10:15:36;;;;;;;1.15;1.05;;;;;;;32.50;33.84;98934.44;4464946;31;33938;-88
2023/07/01 10:18:20;;;;;;;0.95;0.85;;;;;;;32.58;33.77;98936.88;4456371;31;31930;-89
2023/07/01 10:20:49;;;;;;;0.70;0.70;;;;;;;32.57;33.76;98935.16;4456978;31;33334;-88
2023/07/01 10:23:19;;;;;;;0.47;0.47;;;;;;;32.32;33.69;98927.06;4445178;31;34198;-88
2023/07/01 10:25:47;;;;;;;1.08;0.80;;;;;;;32.32;33.98;98944.28;4445300;31;33608;-88
2023/07/01 10:28:15;;;;;;;1.17;1.10;;;;;;;32.23;33.08;98939.34;4457261;31;32967;-88
2023/07/01 10:30:46;;;;;;;0.80;0.62;;;;;;;32.27;33.68;98935.94;4469300;31;33144;-88
2023/07/01 10:33:33;;;;;;;0.80;0.80;;;;;;;32.60;33.19;98931.97;4456810;31;33516;-88
2023/07/01 10:36:07;;;;;;;1.27;0.52;;;;;;;32.65;32.83;98928.56;4466634;31;34040;-88
2023/07/01 10:38:36;;;;;;;0.93;0.88;;;;;;;32.68;32.00;98928.09;4450557;31;32719;-88
2023/07/01 10:41:04;;;;;;;1.25;0.80;;;;;;;32.09;33.39;98935.94;4464853;31;32699;-88
2023/07/01 10:43:37;;;;;;;1.67;0.90;;;;;;;32.58;32.54;98923.19;4465546;31;34362;-88
2023/07/01 10:46:08;;;;;;;1.23;1.12;;;;;;;32.40;33.70;98923.22;4455363;31;33685;-87
2023/07/01 10:49:02;;;;;;;0.98;0.73;;;;;;;32.66;34.57;98922.84;4468601;31;33134;-88
2023/07/01 10:51:54;;;;;;;0.52;0.52;;;;;;;32.42;33.12;98923.81;4466739;31;33510;-88
2023/07/01 10:54:32;;;;;;;4.40;2.27;;;;;;;32.15;34.32;98932.31;4448782;31;32549;-88
2023/07/01 10:57:15;;;;;;;0.85;0.85;;;;;;;32.41;33.14;98935.81;4464439;31;34075;-89
2023/07/01 10:59:44;;;;;;;0.77;0.77;;;;;;;32.10;31.95;98937.62;4456398;31;33499;-86
2023/07/01 11:02:34;;;;;;;0.80;0.80;;;;;;;32.30;32.36;98935.50;4454898;31;32885;-88
2023/07/01 11:05:03;;;;;;;1.40;0.70;;;;;;;32.73;31.80;98939.19;4461450;32;34554;-89
2023/07/01 11:07:32;;;;;;;1.65;1.10;;;;;;;32.25;32.71;98938.06;4453803;31;34578;-89
2023/07/01 11:10:04;;;;;;;1.25;1.15;;;;;;;32.58;32.85;98932.22;4465102;31;34379;-88
2023/07/01 11:12:32;;;;;;;0.65;0.65;;;;;;;32.69;32.56;98937.97;4448951;31;31702;-88
2023/07/01 11:15:00;;;;;;;0.90;0.57;;;;;;;32.58;31.61;98928.66;4464126;31;33821;-88
2023/07/01 11:17:28;;;;;;;0.77;0.77;;;;;;;32.44;32.15;98929.91;4450442;31;36139;-88
2023/07/01 11:19:57;;;;;;;0.57;0.57;;;;;;;32.42;33.17;98926.53;4425973;31;34488;-88
2023/07/01 11:22:25;;;;;;;0.40;0.40;;;;;;;32.98;33.17;98925.38;4453061;31;34247;-88
2023/07/01 11:25:02;;;;;;;2.87;2.58;;;;;;;32.29;33.98;98925.63;4442891;32;33404;-88
2023/07/01 11:27:31;;;;;;;1.17;1.12;;;;;;;32.61;32.68;98928.19;4453650;31;32855;-88
2023/07/01 11:29:58;;;;;;;1.65;1.20;;;;;;;32.50;32.08;98918.03;4452366;31;33960;-88
2023/07/01 11:32:26;;;;;;;0.90;0.75;;;;;;;32.71;32.63;98925.75;4468042;32;34728;-91
2023/07/01 11:34:58;;;;;;;0.68;0.68;;;;;;;32.06;32.80;98917.28;4462914;32;33911;-89
2023/07/01 11:37:28;;;;;;;1.90;0.95;;;;;;;32.16;32.39;98917.59;4452106;31;32697;-88
2023/07/01 11:39:56;;;;;;;1.00;0.93;;;;;;;32.12;32.29;98916.38;4453426;32;33791;-89
2023/07/01 11:42:28;;;;;;;0.50;0.50;;;;;;;32.02;31.89;98910.63;4454567;31;31546;-89